sensor_id;sensor_type;location;lat;lon;timestamp;P1;durP1;ratioP1;P2;durP2;ratioP2
57057;SDS011;55017;52.848;6.748;2023-02-18T00:01:58;139.13;;;133.68;;
57057;SDS011;55017;52.848;6.748;2023-02-18T00:04:24;133.10;;;127.80;;
57057;SDS011;55017;52.848;6.748;2023-02-18T00:06:49;139.88;;;134.25;;
57057;SDS011;55017;52.848;6.748;2023-02-18T00:09:15;134.70;;;129.55;;
57057;SDS011;55017;52.848;6.748;2023-02-18T00:11:41;136.32;;;130.85;;
57057;SDS011;55017;52.848;6.748;2023-02-18T00:14:11;135.05;;;129.93;;
57057;SDS011;55017;52.848;6.748;2023-02-18T00:16:37;134.73;;;129.57;;
57057;SDS011;55017;52.848;6.748;2023-02-18T00:19:04;136.07;;;130.20;;
57057;SDS011;55017;52.848;6.748;2023-02-18T00:21:31;135.88;;;130.52;;
57057;SDS011;55017;52.848;6.748;2023-02-18T00:23:58;139.43;;;134.05;;
57057;SDS011;55017;52.848;6.748;2023-02-18T00:26:24;136.23;;;131.00;;
57057;SDS011;55017;52.848;6.748;2023-02-18T00:28:50;135.50;;;130.57;;
57057;SDS011;55017;52.848;6.748;2023-02-18T00:31:21;137.02;;;131.32;;
57057;SDS011;55017;52.848;6.748;2023-02-18T00:33:48;135.52;;;130.43;;
57057;SDS011;55017;52.848;6.748;2023-02-18T00:36:15;138.18;;;132.98;;
57057;SDS011;55017;52.848;6.748;2023-02-18T00:38:45;132.60;;;127.28;;
57057;SDS011;55017;52.848;6.748;2023-02-18T00:41:11;138.88;;;133.48;;
57057;SDS011;55017;52.848;6.748;2023-02-18T00:43:37;138.50;;;132.52;;
57057;SDS011;55017;52.848;6.748;2023-02-18T00:46:03;133.57;;;128.77;;
57057;SDS011;55017;52.848;6.748;2023-02-18T00:48:30;133.85;;;128.93;;
57057;SDS011;55017;52.848;6.748;2023-02-18T00:50:56;134.15;;;129.27;;
57057;SDS011;55017;52.848;6.748;2023-02-18T00:53:22;135.40;;;130.05;;
57057;SDS011;55017;52.848;6.748;2023-02-18T00:55:48;130.15;;;124.88;;
57057;SDS011;55017;52.848;6.748;2023-02-18T00:58:15;140.07;;;134.13;;
57057;SDS011;55017;52.848;6.748;2023-02-18T01:00:41;136.57;;;131.38;;
57057;SDS011;55017;52.848;6.748;2023-02-18T01:03:07;136.57;;;131.25;;
57057;SDS011;55017;52.848;6.748;2023-02-18T01:05:35;137.52;;;132.48;;
57057;SDS011;55017;52.848;6.748;2023-02-18T01:08:01;136.23;;;130.88;;
57057;SDS011;55017;52.848;6.748;2023-02-18T01:10:27;138.23;;;132.93;;
57057;SDS011;55017;52.848;6.748;2023-02-18T01:12:53;133.50;;;128.50;;
57057;SDS011;55017;52.848;6.748;2023-02-18T01:15:19;136.63;;;131.00;;
57057;SDS011;55017;52.848;6.748;2023-02-18T01:17:45;136.45;;;131.10;;
57057;SDS011;55017;52.848;6.748;2023-02-18T01:20:12;137.13;;;131.75;;
57057;SDS011;55017;52.848;6.748;2023-02-18T01:22:38;138.00;;;133.00;;
57057;SDS011;55017;52.848;6.748;2023-02-18T01:25:05;135.65;;;130.07;;
57057;SDS011;55017;52.848;6.748;2023-02-18T01:27:31;138.75;;;133.50;;
57057;SDS011;55017;52.848;6.748;2023-02-18T01:29:57;137.88;;;132.65;;
57057;SDS011;55017;52.848;6.748;2023-02-18T01:32:23;136.65;;;131.27;;
57057;SDS011;55017;52.848;6.748;2023-02-18T01:34:49;140.45;;;134.68;;
57057;SDS011;55017;52.848;6.748;2023-02-18T01:37:15;138.55;;;133.38;;
57057;SDS011;55017;52.848;6.748;2023-02-18T01:39:41;137.25;;;131.60;;
57057;SDS011;55017;52.848;6.748;2023-02-18T01:42:13;142.00;;;135.75;;
57057;SDS011;55017;52.848;6.748;2023-02-18T01:44:42;134.82;;;129.55;;
57057;SDS011;55017;52.848;6.748;2023-02-18T01:47:08;141.50;;;135.30;;
57057;SDS011;55017;52.848;6.748;2023-02-18T01:49:34;139.52;;;133.82;;
57057;SDS011;55017;52.848;6.748;2023-02-18T01:52:02;138.68;;;133.20;;
57057;SDS011;55017;52.848;6.748;2023-02-18T01:54:33;137.10;;;131.40;;
57057;SDS011;55017;52.848;6.748;2023-02-18T01:57:10;136.50;;;130.55;;
57057;SDS011;55017;52.848;6.748;2023-02-18T02:02:07;139.82;;;133.55;;
57057;SDS011;55017;52.848;6.748;2023-02-18T02:04:35;141.13;;;134.70;;
57057;SDS011;55017;52.848;6.748;2023-02-18T02:07:01;140.50;;;134.75;;
57057;SDS011;55017;52.848;6.748;2023-02-18T02:09:28;139.07;;;133.65;;
57057;SDS011;55017;52.848;6.748;2023-02-18T02:11:59;139.73;;;133.45;;
57057;SDS011;55017;52.848;6.748;2023-02-18T02:14:46;143.00;;;136.85;;
57057;SDS011;55017;52.848;6.748;2023-02-18T02:17:19;137.35;;;131.52;;
57057;SDS011;55017;52.848;6.748;2023-02-18T02:22:38;142.73;;;136.68;;
57057;SDS011;55017;52.848;6.748;2023-02-18T02:35:20;143.70;;;137.80;;
57057;SDS011;55017;52.848;6.748;2023-02-18T02:40:17;140.43;;;134.27;;
57057;SDS011;55017;52.848;6.748;2023-02-18T02:45:22;140.15;;;134.43;;
57057;SDS011;55017;52.848;6.748;2023-02-18T02:47:59;136.98;;;131.25;;
57057;SDS011;55017;52.848;6.748;2023-02-18T02:50:34;140.73;;;134.63;;
57057;SDS011;55017;52.848;6.748;2023-02-18T02:53:03;140.45;;;134.55;;
57057;SDS011;55017;52.848;6.748;2023-02-18T02:55:30;142.93;;;136.85;;
57057;SDS011;55017;52.848;6.748;2023-02-18T02:57:56;141.85;;;136.20;;
57057;SDS011;55017;52.848;6.748;2023-02-18T03:00:32;139.45;;;133.68;;
57057;SDS011;55017;52.848;6.748;2023-02-18T03:05:42;139.80;;;134.30;;
57057;SDS011;55017;52.848;6.748;2023-02-18T03:08:16;136.02;;;130.65;;
57057;SDS011;55017;52.848;6.748;2023-02-18T03:10:57;137.73;;;131.82;;
57057;SDS011;55017;52.848;6.748;2023-02-18T03:16:00;137.05;;;131.52;;
57057;SDS011;55017;52.848;6.748;2023-02-18T03:21:09;145.70;;;139.18;;
57057;SDS011;55017;52.848;6.748;2023-02-18T03:23:37;139.40;;;133.30;;
57057;SDS011;55017;52.848;6.748;2023-02-18T03:26:05;147.80;;;141.27;;
57057;SDS011;55017;52.848;6.748;2023-02-18T03:28:31;140.40;;;134.45;;
57057;SDS011;55017;52.848;6.748;2023-02-18T03:30:59;145.65;;;139.52;;
57057;SDS011;55017;52.848;6.748;2023-02-18T03:33:36;141.93;;;135.80;;
57057;SDS011;55017;52.848;6.748;2023-02-18T03:36:03;145.52;;;139.25;;
57057;SDS011;55017;52.848;6.748;2023-02-18T03:40:55;147.18;;;140.70;;
57057;SDS011;55017;52.848;6.748;2023-02-18T03:43:21;149.95;;;142.85;;
57057;SDS011;55017;52.848;6.748;2023-02-18T03:45:47;150.50;;;142.73;;
57057;SDS011;55017;52.848;6.748;2023-02-18T03:48:13;151.35;;;143.50;;
57057;SDS011;55017;52.848;6.748;2023-02-18T03:50:39;151.75;;;143.77;;
57057;SDS011;55017;52.848;6.748;2023-02-18T03:53:05;154.05;;;146.10;;
57057;SDS011;55017;52.848;6.748;2023-02-18T03:55:31;155.38;;;147.75;;
57057;SDS011;55017;52.848;6.748;2023-02-18T03:57:57;155.77;;;148.18;;
57057;SDS011;55017;52.848;6.748;2023-02-18T04:00:23;153.25;;;144.98;;
57057;SDS011;55017;52.848;6.748;2023-02-18T04:02:49;155.65;;;147.55;;
57057;SDS011;55017;52.848;6.748;2023-02-18T04:05:15;153.65;;;144.75;;
57057;SDS011;55017;52.848;6.748;2023-02-18T04:07:41;153.63;;;144.77;;
57057;SDS011;55017;52.848;6.748;2023-02-18T04:10:08;159.20;;;150.25;;
57057;SDS011;55017;52.848;6.748;2023-02-18T04:12:34;155.77;;;147.07;;
57057;SDS011;55017;52.848;6.748;2023-02-18T04:15:00;159.80;;;150.70;;
57057;SDS011;55017;52.848;6.748;2023-02-18T04:17:26;158.82;;;150.00;;
57057;SDS011;55017;52.848;6.748;2023-02-18T04:19:52;167.63;;;157.90;;
57057;SDS011;55017;52.848;6.748;2023-02-18T04:22:18;161.00;;;151.73;;
57057;SDS011;55017;52.848;6.748;2023-02-18T04:24:44;161.73;;;152.60;;
57057;SDS011;55017;52.848;6.748;2023-02-18T04:27:10;157.77;;;148.43;;
57057;SDS011;55017;52.848;6.748;2023-02-18T04:29:36;160.15;;;150.52;;
57057;SDS011;55017;52.848;6.748;2023-02-18T04:32:01;155.75;;;146.63;;
57057;SDS011;55017;52.848;6.748;2023-02-18T04:34:27;160.68;;;151.77;;
57057;SDS011;55017;52.848;6.748;2023-02-18T04:36:53;158.68;;;149.20;;
57057;SDS011;55017;52.848;6.748;2023-02-18T04:39:20;159.95;;;150.23;;
57057;SDS011;55017;52.848;6.748;2023-02-18T04:41:46;156.40;;;147.52;;
57057;SDS011;55017;52.848;6.748;2023-02-18T04:44:12;160.35;;;151.20;;
57057;SDS011;55017;52.848;6.748;2023-02-18T04:46:38;157.82;;;148.70;;
57057;SDS011;55017;52.848;6.748;2023-02-18T04:49:04;159.57;;;150.23;;
57057;SDS011;55017;52.848;6.748;2023-02-18T04:51:30;162.07;;;152.23;;
57057;SDS011;55017;52.848;6.748;2023-02-18T04:53:56;162.70;;;153.73;;
57057;SDS011;55017;52.848;6.748;2023-02-18T04:56:21;157.88;;;148.88;;
57057;SDS011;55017;52.848;6.748;2023-02-18T04:58:47;164.38;;;154.90;;
57057;SDS011;55017;52.848;6.748;2023-02-18T05:01:13;162.07;;;152.38;;
57057;SDS011;55017;52.848;6.748;2023-02-18T05:03:39;161.05;;;151.30;;
57057;SDS011;55017;52.848;6.748;2023-02-18T05:06:05;165.15;;;155.13;;
57057;SDS011;55017;52.848;6.748;2023-02-18T05:08:31;158.88;;;148.80;;
57057;SDS011;55017;52.848;6.748;2023-02-18T05:10:57;158.73;;;148.90;;
57057;SDS011;55017;52.848;6.748;2023-02-18T05:13:23;158.95;;;149.35;;
57057;SDS011;55017;52.848;6.748;2023-02-18T05:15:50;163.43;;;153.30;;
57057;SDS011;55017;52.848;6.748;2023-02-18T05:18:16;163.18;;;152.88;;
57057;SDS011;55017;52.848;6.748;2023-02-18T05:20:42;163.20;;;152.88;;
57057;SDS011;55017;52.848;6.748;2023-02-18T05:23:08;161.98;;;151.77;;
57057;SDS011;55017;52.848;6.748;2023-02-18T05:25:34;159.40;;;148.75;;
57057;SDS011;55017;52.848;6.748;2023-02-18T05:28:00;162.18;;;151.63;;
57057;SDS011;55017;52.848;6.748;2023-02-18T05:30:26;160.10;;;149.77;;
57057;SDS011;55017;52.848;6.748;2023-02-18T05:32:52;163.90;;;152.80;;
57057;SDS011;55017;52.848;6.748;2023-02-18T05:35:18;165.50;;;154.45;;
57057;SDS011;55017;52.848;6.748;2023-02-18T05:37:44;161.45;;;150.23;;
57057;SDS011;55017;52.848;6.748;2023-02-18T05:40:10;159.52;;;148.23;;
57057;SDS011;55017;52.848;6.748;2023-02-18T05:42:36;162.32;;;150.45;;
57057;SDS011;55017;52.848;6.748;2023-02-18T05:45:02;161.15;;;150.40;;
57057;SDS011;55017;52.848;6.748;2023-02-18T05:47:28;160.70;;;149.80;;
57057;SDS011;55017;52.848;6.748;2023-02-18T05:49:54;161.02;;;149.23;;
57057;SDS011;55017;52.848;6.748;2023-02-18T05:52:20;158.07;;;147.55;;
57057;SDS011;55017;52.848;6.748;2023-02-18T05:54:46;160.18;;;149.38;;
57057;SDS011;55017;52.848;6.748;2023-02-18T05:57:13;158.15;;;147.77;;
57057;SDS011;55017;52.848;6.748;2023-02-18T05:59:39;156.57;;;146.23;;
57057;SDS011;55017;52.848;6.748;2023-02-18T06:02:05;159.07;;;147.93;;
57057;SDS011;55017;52.848;6.748;2023-02-18T06:04:31;155.75;;;146.65;;
57057;SDS011;55017;52.848;6.748;2023-02-18T06:06:57;151.65;;;142.05;;
57057;SDS011;55017;52.848;6.748;2023-02-18T06:09:23;154.52;;;145.48;;
57057;SDS011;55017;52.848;6.748;2023-02-18T06:11:49;150.85;;;141.75;;
57057;SDS011;55017;52.848;6.748;2023-02-18T06:14:16;150.43;;;141.70;;
57057;SDS011;55017;52.848;6.748;2023-02-18T06:16:42;154.82;;;146.10;;
57057;SDS011;55017;52.848;6.748;2023-02-18T06:19:08;148.52;;;140.13;;
57057;SDS011;55017;52.848;6.748;2023-02-18T06:21:34;144.27;;;136.65;;
57057;SDS011;55017;52.848;6.748;2023-02-18T06:24:00;143.15;;;135.80;;
57057;SDS011;55017;52.848;6.748;2023-02-18T06:26:26;143.45;;;135.93;;
57057;SDS011;55017;52.848;6.748;2023-02-18T06:28:52;149.45;;;141.77;;
57057;SDS011;55017;52.848;6.748;2023-02-18T06:31:18;144.27;;;136.75;;
57057;SDS011;55017;52.848;6.748;2023-02-18T06:33:44;144.77;;;137.98;;
57057;SDS011;55017;52.848;6.748;2023-02-18T06:36:10;141.95;;;135.23;;
57057;SDS011;55017;52.848;6.748;2023-02-18T06:38:38;141.18;;;134.50;;
57057;SDS011;55017;52.848;6.748;2023-02-18T06:41:04;142.30;;;135.68;;
57057;SDS011;55017;52.848;6.748;2023-02-18T06:43:30;139.50;;;133.52;;
57057;SDS011;55017;52.848;6.748;2023-02-18T06:45:56;135.65;;;130.15;;
57057;SDS011;55017;52.848;6.748;2023-02-18T06:48:22;141.10;;;135.30;;
57057;SDS011;55017;52.848;6.748;2023-02-18T06:50:48;137.50;;;132.10;;
57057;SDS011;55017;52.848;6.748;2023-02-18T06:53:14;136.25;;;130.57;;
57057;SDS011;55017;52.848;6.748;2023-02-18T06:58:10;137.25;;;131.85;;
57057;SDS011;55017;52.848;6.748;2023-02-18T07:00:36;135.30;;;130.23;;
57057;SDS011;55017;52.848;6.748;2023-02-18T07:03:02;135.63;;;130.45;;
57057;SDS011;55017;52.848;6.748;2023-02-18T07:05:28;138.35;;;132.95;;
57057;SDS011;55017;52.848;6.748;2023-02-18T07:07:55;139.70;;;134.35;;
57057;SDS011;55017;52.848;6.748;2023-02-18T07:10:21;136.43;;;131.10;;
57057;SDS011;55017;52.848;6.748;2023-02-18T07:12:47;138.48;;;132.75;;
57057;SDS011;55017;52.848;6.748;2023-02-18T07:15:13;141.35;;;135.52;;
57057;SDS011;55017;52.848;6.748;2023-02-18T07:17:39;141.48;;;135.60;;
57057;SDS011;55017;52.848;6.748;2023-02-18T07:20:05;142.82;;;136.70;;
57057;SDS011;55017;52.848;6.748;2023-02-18T07:22:31;147.23;;;140.55;;
57057;SDS011;55017;52.848;6.748;2023-02-18T07:24:58;146.90;;;140.32;;
57057;SDS011;55017;52.848;6.748;2023-02-18T07:27:24;148.02;;;141.38;;
57057;SDS011;55017;52.848;6.748;2023-02-18T07:29:50;146.63;;;139.55;;
57057;SDS011;55017;52.848;6.748;2023-02-18T07:32:17;147.50;;;140.45;;
57057;SDS011;55017;52.848;6.748;2023-02-18T07:34:43;153.05;;;145.18;;
57057;SDS011;55017;52.848;6.748;2023-02-18T07:37:09;145.52;;;138.57;;
57057;SDS011;55017;52.848;6.748;2023-02-18T07:39:39;147.65;;;140.73;;
57057;SDS011;55017;52.848;6.748;2023-02-18T07:42:05;149.82;;;142.65;;
57057;SDS011;55017;52.848;6.748;2023-02-18T07:44:31;146.88;;;139.73;;
57057;SDS011;55017;52.848;6.748;2023-02-18T07:46:57;153.32;;;145.82;;
57057;SDS011;55017;52.848;6.748;2023-02-18T07:49:24;152.95;;;145.32;;
57057;SDS011;55017;52.848;6.748;2023-02-18T07:51:50;148.90;;;141.95;;
57057;SDS011;55017;52.848;6.748;2023-02-18T07:54:16;149.05;;;141.85;;
57057;SDS011;55017;52.848;6.748;2023-02-18T07:56:42;152.15;;;144.43;;
57057;SDS011;55017;52.848;6.748;2023-02-18T07:59:09;150.77;;;143.77;;
57057;SDS011;55017;52.848;6.748;2023-02-18T08:01:35;149.95;;;143.25;;
57057;SDS011;55017;52.848;6.748;2023-02-18T08:04:01;145.48;;;139.07;;
57057;SDS011;55017;52.848;6.748;2023-02-18T08:06:29;145.32;;;139.13;;
57057;SDS011;55017;52.848;6.748;2023-02-18T08:08:56;140.13;;;134.27;;
57057;SDS011;55017;52.848;6.748;2023-02-18T08:11:22;147.27;;;141.13;;
57057;SDS011;55017;52.848;6.748;2023-02-18T08:13:48;141.82;;;135.93;;
57057;SDS011;55017;52.848;6.748;2023-02-18T08:16:14;143.75;;;137.68;;
57057;SDS011;55017;52.848;6.748;2023-02-18T08:18:41;141.93;;;135.80;;
57057;SDS011;55017;52.848;6.748;2023-02-18T08:21:07;141.70;;;135.65;;
57057;SDS011;55017;52.848;6.748;2023-02-18T08:23:33;140.35;;;134.70;;
57057;SDS011;55017;52.848;6.748;2023-02-18T08:25:59;142.65;;;136.88;;
57057;SDS011;55017;52.848;6.748;2023-02-18T08:28:25;144.65;;;138.68;;
57057;SDS011;55017;52.848;6.748;2023-02-18T08:30:52;143.00;;;137.10;;
57057;SDS011;55017;52.848;6.748;2023-02-18T08:33:18;140.98;;;134.95;;
57057;SDS011;55017;52.848;6.748;2023-02-18T08:35:45;143.05;;;137.20;;
57057;SDS011;55017;52.848;6.748;2023-02-18T08:38:12;135.55;;;129.77;;
57057;SDS011;55017;52.848;6.748;2023-02-18T08:40:38;142.65;;;136.60;;
57057;SDS011;55017;52.848;6.748;2023-02-18T08:43:05;142.77;;;137.10;;
57057;SDS011;55017;52.848;6.748;2023-02-18T08:45:31;141.75;;;136.10;;
57057;SDS011;55017;52.848;6.748;2023-02-18T08:47:57;138.95;;;133.50;;
57057;SDS011;55017;52.848;6.748;2023-02-18T08:50:23;141.20;;;135.63;;
57057;SDS011;55017;52.848;6.748;2023-02-18T08:52:50;138.85;;;133.48;;
57057;SDS011;55017;52.848;6.748;2023-02-18T08:55:17;142.50;;;136.82;;
57057;SDS011;55017;52.848;6.748;2023-02-18T08:57:46;137.02;;;131.68;;
57057;SDS011;55017;52.848;6.748;2023-02-18T09:00:13;138.25;;;132.75;;
57057;SDS011;55017;52.848;6.748;2023-02-18T09:02:39;136.65;;;131.43;;
57057;SDS011;55017;52.848;6.748;2023-02-18T09:05:05;135.50;;;130.15;;
57057;SDS011;55017;52.848;6.748;2023-02-18T09:07:32;132.80;;;127.57;;
57057;SDS011;55017;52.848;6.748;2023-02-18T09:09:58;139.55;;;133.82;;
57057;SDS011;55017;52.848;6.748;2023-02-18T09:12:24;135.65;;;130.43;;
57057;SDS011;55017;52.848;6.748;2023-02-18T09:14:50;135.02;;;129.90;;
57057;SDS011;55017;52.848;6.748;2023-02-18T09:17:16;137.75;;;132.25;;
57057;SDS011;55017;52.848;6.748;2023-02-18T09:19:42;134.55;;;129.40;;
57057;SDS011;55017;52.848;6.748;2023-02-18T09:22:08;136.45;;;131.45;;
57057;SDS011;55017;52.848;6.748;2023-02-18T09:24:37;132.15;;;127.18;;
57057;SDS011;55017;52.848;6.748;2023-02-18T09:27:04;132.40;;;127.80;;
57057;SDS011;55017;52.848;6.748;2023-02-18T09:29:30;135.18;;;130.13;;
57057;SDS011;55017;52.848;6.748;2023-02-18T09:32:00;135.88;;;131.18;;
57057;SDS011;55017;52.848;6.748;2023-02-18T09:34:26;129.95;;;125.43;;
57057;SDS011;55017;52.848;6.748;2023-02-18T09:36:52;133.30;;;128.45;;
57057;SDS011;55017;52.848;6.748;2023-02-18T09:39:18;135.15;;;130.13;;
57057;SDS011;55017;52.848;6.748;2023-02-18T09:41:58;135.00;;;130.20;;
57057;SDS011;55017;52.848;6.748;2023-02-18T09:44:29;131.73;;;126.60;;
57057;SDS011;55017;52.848;6.748;2023-02-18T09:47:02;135.10;;;129.95;;
57057;SDS011;55017;52.848;6.748;2023-02-18T09:49:34;135.23;;;129.93;;
57057;SDS011;55017;52.848;6.748;2023-02-18T09:52:19;135.38;;;130.23;;
57057;SDS011;55017;52.848;6.748;2023-02-18T09:54:48;131.07;;;126.32;;
57057;SDS011;55017;52.848;6.748;2023-02-18T09:59:46;133.23;;;128.23;;
57057;SDS011;55017;52.848;6.748;2023-02-18T10:02:13;134.15;;;129.02;;
57057;SDS011;55017;52.848;6.748;2023-02-18T10:04:44;130.30;;;125.30;;
57057;SDS011;55017;52.848;6.748;2023-02-18T10:07:25;132.75;;;127.53;;
57057;SDS011;55017;52.848;6.748;2023-02-18T10:09:52;134.27;;;129.05;;
57057;SDS011;55017;52.848;6.748;2023-02-18T10:12:19;134.95;;;129.93;;
57057;SDS011;55017;52.848;6.748;2023-02-18T10:14:53;131.82;;;126.35;;
57057;SDS011;55017;52.848;6.748;2023-02-18T10:17:19;137.23;;;132.43;;
57057;SDS011;55017;52.848;6.748;2023-02-18T10:19:46;132.07;;;127.35;;
57057;SDS011;55017;52.848;6.748;2023-02-18T10:22:13;130.25;;;124.65;;
57057;SDS011;55017;52.848;6.748;2023-02-18T10:24:41;135.90;;;130.80;;
57057;SDS011;55017;52.848;6.748;2023-02-18T10:27:08;133.15;;;128.05;;
57057;SDS011;55017;52.848;6.748;2023-02-18T10:29:34;134.40;;;129.10;;
57057;SDS011;55017;52.848;6.748;2023-02-18T10:32:06;134.18;;;128.93;;
57057;SDS011;55017;52.848;6.748;2023-02-18T10:34:40;133.43;;;128.00;;
57057;SDS011;55017;52.848;6.748;2023-02-18T10:37:17;131.63;;;126.60;;
57057;SDS011;55017;52.848;6.748;2023-02-18T10:42:45;132.00;;;127.07;;
57057;SDS011;55017;52.848;6.748;2023-02-18T10:45:22;131.82;;;126.20;;
57057;SDS011;55017;52.848;6.748;2023-02-18T10:47:52;132.27;;;127.07;;
57057;SDS011;55017;52.848;6.748;2023-02-18T10:52:54;133.23;;;127.95;;
57057;SDS011;55017;52.848;6.748;2023-02-18T10:55:32;134.30;;;129.30;;
57057;SDS011;55017;52.848;6.748;2023-02-18T10:57:58;136.10;;;130.80;;
57057;SDS011;55017;52.848;6.748;2023-02-18T11:00:25;134.95;;;129.70;;
57057;SDS011;55017;52.848;6.748;2023-02-18T11:05:47;131.70;;;126.78;;
57057;SDS011;55017;52.848;6.748;2023-02-18T11:08:28;132.80;;;127.63;;
57057;SDS011;55017;52.848;6.748;2023-02-18T11:11:06;135.85;;;130.70;;
57057;SDS011;55017;52.848;6.748;2023-02-18T11:13:34;134.35;;;129.02;;
57057;SDS011;55017;52.848;6.748;2023-02-18T11:16:01;135.43;;;130.13;;
57057;SDS011;55017;52.848;6.748;2023-02-18T11:18:37;134.20;;;128.77;;
57057;SDS011;55017;52.848;6.748;2023-02-18T11:21:05;133.18;;;127.95;;
57057;SDS011;55017;52.848;6.748;2023-02-18T11:23:32;132.98;;;127.90;;
57057;SDS011;55017;52.848;6.748;2023-02-18T11:26:10;134.07;;;129.17;;
57057;SDS011;55017;52.848;6.748;2023-02-18T11:28:45;130.40;;;125.57;;
57057;SDS011;55017;52.848;6.748;2023-02-18T11:31:25;129.37;;;124.27;;
57057;SDS011;55017;52.848;6.748;2023-02-18T11:33:53;133.98;;;128.82;;
57057;SDS011;55017;52.848;6.748;2023-02-18T11:36:35;132.40;;;127.32;;
57057;SDS011;55017;52.848;6.748;2023-02-18T11:39:12;131.18;;;126.25;;
57057;SDS011;55017;52.848;6.748;2023-02-18T11:41:43;133.77;;;128.90;;
57057;SDS011;55017;52.848;6.748;2023-02-18T11:44:27;135.95;;;130.77;;
57057;SDS011;55017;52.848;6.748;2023-02-18T11:46:55;136.10;;;130.60;;
57057;SDS011;55017;52.848;6.748;2023-02-18T11:49:22;129.85;;;124.97;;
57057;SDS011;55017;52.848;6.748;2023-02-18T11:51:48;132.93;;;128.02;;
57057;SDS011;55017;52.848;6.748;2023-02-18T11:54:25;130.00;;;124.53;;
57057;SDS011;55017;52.848;6.748;2023-02-18T11:59:21;135.18;;;130.20;;
57057;SDS011;55017;52.848;6.748;2023-02-18T12:01:52;130.00;;;125.05;;
57057;SDS011;55017;52.848;6.748;2023-02-18T12:04:39;130.55;;;125.60;;
57057;SDS011;55017;52.848;6.748;2023-02-18T12:09:37;133.13;;;128.13;;
57057;SDS011;55017;52.848;6.748;2023-02-18T12:12:06;126.82;;;121.97;;
57057;SDS011;55017;52.848;6.748;2023-02-18T12:17:05;128.35;;;123.40;;
57057;SDS011;55017;52.848;6.748;2023-02-18T12:19:41;131.93;;;127.18;;
57057;SDS011;55017;52.848;6.748;2023-02-18T12:22:29;126.32;;;121.70;;
57057;SDS011;55017;52.848;6.748;2023-02-18T12:25:03;127.82;;;123.00;;
57057;SDS011;55017;52.848;6.748;2023-02-18T12:30:20;127.82;;;123.43;;
57057;SDS011;55017;52.848;6.748;2023-02-18T12:33:38;130.07;;;125.18;;
57057;SDS011;55017;52.848;6.748;2023-02-18T12:41:13;130.77;;;125.60;;
57057;SDS011;55017;52.848;6.748;2023-02-18T12:43:57;129.65;;;125.05;;
57057;SDS011;55017;52.848;6.748;2023-02-18T12:46:35;130.77;;;125.82;;
57057;SDS011;55017;52.848;6.748;2023-02-18T12:56:40;132.07;;;127.03;;
57057;SDS011;55017;52.848;6.748;2023-02-18T13:04:35;132.93;;;128.35;;
57057;SDS011;55017;52.848;6.748;2023-02-18T13:09:57;131.88;;;127.07;;
57057;SDS011;55017;52.848;6.748;2023-02-18T13:17:42;130.20;;;125.30;;
57057;SDS011;55017;52.848;6.748;2023-02-18T13:20:19;132.05;;;127.50;;
57057;SDS011;55017;52.848;6.748;2023-02-18T13:22:47;131.13;;;125.97;;
57057;SDS011;55017;52.848;6.748;2023-02-18T13:25:14;127.75;;;123.07;;
57057;SDS011;55017;52.848;6.748;2023-02-18T13:27:57;130.50;;;125.53;;
57057;SDS011;55017;52.848;6.748;2023-02-18T13:30:36;132.07;;;127.45;;
57057;SDS011;55017;52.848;6.748;2023-02-18T13:35:34;130.15;;;125.43;;
57057;SDS011;55017;52.848;6.748;2023-02-18T13:38:14;131.18;;;126.38;;
57057;SDS011;55017;52.848;6.748;2023-02-18T13:40:41;128.40;;;123.25;;
57057;SDS011;55017;52.848;6.748;2023-02-18T13:46:07;134.55;;;129.30;;
57057;SDS011;55017;52.848;6.748;2023-02-18T13:48:42;130.63;;;126.03;;
57057;SDS011;55017;52.848;6.748;2023-02-18T13:51:09;130.65;;;126.05;;
57057;SDS011;55017;52.848;6.748;2023-02-18T13:53:37;135.35;;;130.23;;
57057;SDS011;55017;52.848;6.748;2023-02-18T13:56:10;133.98;;;128.77;;
57057;SDS011;55017;52.848;6.748;2023-02-18T13:58:51;130.88;;;126.32;;
57057;SDS011;55017;52.848;6.748;2023-02-18T14:01:39;132.75;;;128.02;;
57057;SDS011;55017;52.848;6.748;2023-02-18T14:09:35;130.55;;;125.75;;
57057;SDS011;55017;52.848;6.748;2023-02-18T14:14:48;130.23;;;125.63;;
57057;SDS011;55017;52.848;6.748;2023-02-18T14:19:53;127.22;;;122.55;;
57057;SDS011;55017;52.848;6.748;2023-02-18T14:22:24;133.73;;;128.82;;
57057;SDS011;55017;52.848;6.748;2023-02-18T14:24:55;130.85;;;126.00;;
57057;SDS011;55017;52.848;6.748;2023-02-18T14:27:21;129.60;;;124.95;;
57057;SDS011;55017;52.848;6.748;2023-02-18T14:29:50;128.38;;;123.07;;
57057;SDS011;55017;52.848;6.748;2023-02-18T14:32:16;132.80;;;127.90;;
57057;SDS011;55017;52.848;6.748;2023-02-18T14:37:38;131.40;;;126.43;;
57057;SDS011;55017;52.848;6.748;2023-02-18T14:50:12;130.70;;;126.10;;
57057;SDS011;55017;52.848;6.748;2023-02-18T14:52:42;130.32;;;125.80;;
57057;SDS011;55017;52.848;6.748;2023-02-18T14:55:17;132.30;;;127.28;;
57057;SDS011;55017;52.848;6.748;2023-02-18T14:57:45;129.90;;;124.90;;
57057;SDS011;55017;52.848;6.748;2023-02-18T15:00:25;129.82;;;125.25;;
57057;SDS011;55017;52.848;6.748;2023-02-18T15:02:56;127.80;;;123.18;;
57057;SDS011;55017;52.848;6.748;2023-02-18T15:05:24;134.52;;;129.50;;
57057;SDS011;55017;52.848;6.748;2023-02-18T15:08:00;126.57;;;121.80;;
57057;SDS011;55017;52.848;6.748;2023-02-18T15:10:38;131.52;;;126.53;;
57057;SDS011;55017;52.848;6.748;2023-02-18T15:13:07;135.48;;;130.23;;
57057;SDS011;55017;52.848;6.748;2023-02-18T15:15:34;128.95;;;124.18;;
57057;SDS011;55017;52.848;6.748;2023-02-18T15:18:01;129.63;;;124.82;;
57057;SDS011;55017;52.848;6.748;2023-02-18T15:20:28;137.93;;;132.48;;
57057;SDS011;55017;52.848;6.748;2023-02-18T15:22:54;133.05;;;128.35;;
57057;SDS011;55017;52.848;6.748;2023-02-18T15:25:20;133.70;;;128.82;;
57057;SDS011;55017;52.848;6.748;2023-02-18T15:27:50;131.57;;;126.47;;
57057;SDS011;55017;52.848;6.748;2023-02-18T15:30:26;134.40;;;129.15;;
57057;SDS011;55017;52.848;6.748;2023-02-18T15:32:54;128.02;;;123.55;;
57057;SDS011;55017;52.848;6.748;2023-02-18T15:35:21;133.50;;;128.63;;
57057;SDS011;55017;52.848;6.748;2023-02-18T15:37:52;131.70;;;126.63;;
57057;SDS011;55017;52.848;6.748;2023-02-18T15:40:19;129.52;;;124.95;;
57057;SDS011;55017;52.848;6.748;2023-02-18T15:42:48;133.47;;;128.10;;
57057;SDS011;55017;52.848;6.748;2023-02-18T15:45:24;135.40;;;130.07;;
57057;SDS011;55017;52.848;6.748;2023-02-18T15:47:54;133.38;;;128.57;;
57057;SDS011;55017;52.848;6.748;2023-02-18T15:50:21;129.85;;;124.55;;
57057;SDS011;55017;52.848;6.748;2023-02-18T15:52:48;133.57;;;128.18;;
57057;SDS011;55017;52.848;6.748;2023-02-18T15:55:20;131.88;;;127.03;;